Time;durP1;ratioP1;P1;durP2;ratioP2;P2;SDS_P1;SDS_P2;PMS_P1;PMS_P2;Temp;Humidity;BMP_temperature;BMP_pressure;BME280_temperature;BME280_humidity;BME280_pressure;Samples;Min_cycle;Max_cycle;Signal;HPM_P1;HPM_P2
2022/08/12 00:44:21;;;;;;;4.60;2.53;;;18.70;86.80;;;;;;4956145;29;20177;-91
2022/08/12 00:46:55;;;;;;;5.85;3.10;;;18.60;87.30;;;;;;4938789;29;20034;-92
2022/08/12 00:49:23;;;;;;;4.68;2.90;;;18.50;87.90;;;;;;4955554;29;20032;-89
2022/08/12 00:52:05;;;;;;;5.13;2.90;;;18.40;88.80;;;;;;4938551;29;20118;-90
2022/08/12 00:54:47;;;;;;;5.38;3.10;;;18.30;89.90;;;;;;4938431;29;20054;-89
2022/08/12 00:57:19;;;;;;;4.53;2.80;;;18.20;90.30;;;;;;4938882;29;20035;-91
2022/08/12 00:59:54;;;;;;;3.75;2.92;;;18.10;90.60;;;;;;4938201;29;20035;-90
2022/08/12 01:02:24;;;;;;;4.93;2.83;;;18.10;91.00;;;;;;4938367;29;20046;-90
2022/08/12 01:13:17;;;;;;;4.32;2.83;;;17.80;92.20;;;;;;4955799;29;20034;-91
2022/08/12 01:15:44;;;;;;;3.92;2.42;;;17.80;92.60;;;;;;4938170;29;20038;-90
2022/08/12 01:18:15;;;;;;;4.70;2.85;;;17.70;92.80;;;;;;4938713;29;20027;-91
2022/08/12 01:20:52;;;;;;;;;;;17.70;93.10;;;;;;4940405;29;20038;-90
2022/08/12 01:23:36;;;;;;;7.03;2.75;;;17.70;93.30;;;;;;4953969;29;20327;-90
2022/08/12 01:26:05;;;;;;;4.50;2.97;;;17.60;93.60;;;;;;4938476;29;20036;-90
2022/08/12 01:28:33;;;;;;;4.53;3.13;;;17.50;93.80;;;;;;4938464;29;20035;-89
2022/08/12 01:31:05;;;;;;;4.50;2.95;;;17.50;94.20;;;;;;4938488;29;20075;-89
2022/08/12 01:33:58;;;;;;;7.05;2.80;;;17.50;94.60;;;;;;4938941;29;20042;-89
2022/08/12 01:36:26;;;;;;;5.00;2.65;;;17.40;95.00;;;;;;4938559;29;20434;-89
2022/08/12 01:38:55;;;;;;;3.38;2.78;;;17.40;95.20;;;;;;4938562;29;20023;-89
2022/08/12 01:41:24;;;;;;;3.58;2.95;;;17.40;95.50;;;;;;4938443;29;20082;-90
2022/08/12 01:43:53;;;;;;;7.82;2.97;;;17.40;95.70;;;;;;4938174;29;20123;-90
2022/08/12 01:46:39;;;;;;;4.32;3.20;;;17.30;96.00;;;;;;4937930;29;20106;-89
2022/08/12 01:49:40;;;;;;;6.00;3.15;;;17.30;96.40;;;;;;4939583;29;20045;-91
2022/08/12 01:52:08;;;;;;;7.47;3.50;;;17.20;96.60;;;;;;4942938;29;20489;-89
2022/08/12 01:54:41;;;;;;;5.10;2.90;;;17.10;96.70;;;;;;4939073;29;20783;-90
2022/08/12 01:57:25;;;;;;;4.43;2.85;;;17.10;97.20;;;;;;4954055;29;20123;-90
2022/08/12 02:00:04;;;;;;;4.78;3.10;;;17.00;97.60;;;;;;4937898;29;20122;-90
2022/08/12 02:02:33;;;;;;;4.30;3.10;;;17.00;97.80;;;;;;4955383;29;20040;-89
2022/08/12 02:11:42;;;;;;;3.60;2.95;;;16.90;98.80;;;;;;4955246;29;20043;-90
2022/08/12 02:14:45;;;;;;;4.45;2.75;;;16.80;99.00;;;;;;4937966;29;20054;-90
2022/08/12 02:17:22;;;;;;;5.68;2.78;;;16.80;99.70;;;;;;4937920;29;20488;-89
2022/08/12 02:20:20;;;;;;;7.93;3.00;;;16.80;99.90;;;;;;4937723;29;20142;-90
2022/08/12 02:22:49;;;;;;;3.90;3.08;;;16.70;99.90;;;;;;4906061;29;20517;-90
2022/08/12 02:25:14;;;;;;;5.15;3.00;;;16.70;99.90;;;;;;4937939;29;20046;-90
2022/08/12 02:27:44;;;;;;;6.25;3.22;;;16.60;99.90;;;;;;4955039;29;20150;-90
2022/08/12 02:30:13;;;;;;;5.97;3.40;;;16.60;99.90;;;;;;4937423;29;20045;-91
2022/08/12 02:32:42;;;;;;;4.35;3.30;;;16.60;99.90;;;;;;4937625;29;20122;-89
2022/08/12 02:35:10;;;;;;;6.60;3.20;;;16.50;99.90;;;;;;4937683;29;20109;-89
2022/08/12 02:37:41;;;;;;;5.38;2.92;;;16.50;99.90;;;;;;4954465;29;20059;-90
2022/08/12 02:40:09;;;;;;;6.45;3.38;;;16.40;99.90;;;;;;4939873;29;20039;-90
2022/08/12 02:42:35;;;;;;;3.67;3.15;;;16.30;99.90;;;;;;4941128;29;20065;-90
2022/08/12 02:45:07;;;;;;;4.15;2.75;;;16.20;99.90;;;;;;4941024;29;20034;-89
2022/08/12 02:47:38;;;;;;;5.00;3.05;;;16.20;99.90;;;;;;4940959;29;20105;-89
2022/08/12 02:50:05;;;;;;;7.22;3.15;;;16.20;99.90;;;;;;4941234;29;20031;-89
2022/08/12 02:52:33;;;;;;;3.28;2.85;;;16.10;99.90;;;;;;4940799;29;20314;-90
2022/08/12 02:55:14;;;;;;;7.28;3.25;;;16.10;99.90;;;;;;4941546;29;20050;-90
2022/08/12 02:57:43;;;;;;;4.43;3.42;;;16.10;99.90;;;;;;4941115;29;20031;-87
2022/08/12 03:00:10;;;;;;;4.03;2.90;;;16.10;99.90;;;;;;4941391;29;20027;-89
2022/08/12 03:02:38;;;;;;;4.88;3.30;;;16.10;99.90;;;;;;4940685;29;20039;-90
2022/08/12 03:05:05;;;;;;;7.53;3.22;;;16.10;99.90;;;;;;4958299;29;20031;-88
2022/08/12 03:07:36;;;;;;;4.00;3.05;;;16.10;99.90;;;;;;4941011;28;20037;-89
2022/08/12 03:10:09;;;;;;;4.57;3.10;;;16.00;99.90;;;;;;4941364;29;20071;-89
2022/08/12 03:12:39;;;;;;;5.05;3.17;;;16.00;99.90;;;;;;4940754;29;20114;-91
2022/08/12 03:15:11;;;;;;;6.88;3.33;;;16.00;99.90;;;;;;4942161;29;20089;-90
2022/08/12 03:17:42;;;;;;;4.53;3.10;;;16.00;99.90;;;;;;4949533;29;20079;-90
2022/08/12 03:20:15;;;;;;;3.83;3.10;;;15.90;99.90;;;;;;4948698;29;20037;-89
2022/08/12 03:22:45;;;;;;;5.45;2.85;;;15.90;99.90;;;;;;4942721;29;20090;-87
2022/08/12 03:25:26;;;;;;;5.35;3.55;;;15.90;99.90;;;;;;4941370;29;20035;-88
2022/08/12 03:27:54;;;;;;;4.30;2.72;;;15.90;99.90;;;;;;4941559;29;20054;-88
2022/08/12 03:30:32;;;;;;;7.53;3.20;;;15.90;99.90;;;;;;4941155;29;20031;-89
2022/08/12 03:33:01;;;;;;;4.80;3.20;;;15.80;99.90;;;;;;4941028;29;20023;-89
2022/08/12 03:35:31;;;;;;;4.40;2.92;;;15.80;99.90;;;;;;4941037;29;20094;-88
2022/08/12 03:38:00;;;;;;;5.55;2.92;;;15.80;99.90;;;;;;4940055;29;20027;-88
2022/08/12 04:00:24;;;;;;;3.97;3.10;;;15.40;99.90;;;;;;4971399;29;20042;-88
2022/08/12 04:03:00;;;;;;;5.95;3.22;;;15.40;99.90;;;;;;4959677;29;20501;-89
2022/08/12 04:05:26;;;;;;;5.50;3.00;;;15.30;99.90;;;;;;4960242;29;20023;-89
2022/08/12 04:07:53;;;;;;;4.43;2.80;;;15.30;99.90;;;;;;4959673;29;20015;-89
2022/08/12 04:10:19;;;;;;;4.18;3.15;;;15.30;99.90;;;;;;4939991;29;20027;-89
2022/08/12 04:13:18;;;;;;;4.47;3.20;;;15.30;99.90;;;;;;4941851;29;20042;-90
2022/08/12 04:15:45;;;;;;;3.22;2.92;;;15.20;99.90;;;;;;4942410;29;20078;-90
2022/08/12 04:18:12;;;;;;;6.00;3.85;;;15.20;99.90;;;;;;4945154;29;20046;-89
2022/08/12 04:20:41;;;;;;;5.32;3.95;;;15.10;99.90;;;;;;4924999;29;20456;-88
2022/08/12 04:23:11;;;;;;;6.95;3.40;;;15.00;99.90;;;;;;4944459;29;20147;-90
2022/08/12 04:25:38;;;;;;;6.60;3.50;;;14.90;99.90;;;;;;4944273;29;20031;-90
2022/08/12 04:28:09;;;;;;;6.55;3.70;;;14.90;99.90;;;;;;4939087;29;20030;-91
2022/08/12 04:30:36;;;;;;;5.93;3.63;;;14.90;99.90;;;;;;4943326;29;20047;-90
2022/08/12 04:33:03;;;;;;;4.68;3.30;;;14.80;99.90;;;;;;4939029;29;20035;-89
2022/08/12 04:35:30;;;;;;;5.68;2.97;;;14.80;99.90;;;;;;4960116;29;20027;-90
2022/08/12 04:37:57;;;;;;;6.53;3.70;;;14.80;99.90;;;;;;4944337;29;20595;-87
2022/08/12 04:40:25;;;;;;;8.75;4.03;;;14.70;99.90;;;;;;4960481;29;20038;-90
2022/08/12 04:42:51;;;;;;;9.50;4.00;;;14.70;99.90;;;;;;4939288;29;20035;-90
2022/08/12 04:45:19;;;;;;;5.75;3.72;;;14.60;99.90;;;;;;4940163;29;20374;-91
2022/08/12 04:47:46;;;;;;;5.15;3.42;;;14.60;99.90;;;;;;4939439;29;20131;-90
2022/08/12 04:50:16;;;;;;;5.75;3.55;;;14.60;99.90;;;;;;4939652;29;20397;-90
2022/08/12 04:52:43;;;;;;;8.43;3.88;;;14.60;99.90;;;;;;4939335;29;20033;-91
2022/08/12 04:55:09;;;;;;;5.85;3.78;;;14.60;99.90;;;;;;4939255;29;20055;-88
2022/08/12 04:57:36;;;;;;;5.43;3.38;;;14.50;99.90;;;;;;4939026;29;20489;-91
2022/08/12 05:00:10;;;;;;;3.97;3.17;;;14.60;99.90;;;;;;4938873;29;20401;-89
2022/08/12 05:02:36;;;;;;;5.63;3.20;;;14.50;99.90;;;;;;4938744;29;20112;-88
2022/08/12 05:05:04;;;;;;;6.07;3.28;;;14.50;99.90;;;;;;4939030;29;20637;-89
2022/08/12 05:07:30;;;;;;;5.85;3.78;;;14.50;99.90;;;;;;4938722;29;20026;-89
2022/08/12 05:09:56;;;;;;;4.40;3.55;;;14.50;99.90;;;;;;4938795;29;20035;-88
2022/08/12 05:12:22;;;;;;;5.55;3.58;;;14.40;99.90;;;;;;4939313;29;20101;-90
2022/08/12 05:14:49;;;;;;;6.20;3.70;;;14.40;99.90;;;;;;4939817;29;20035;-88
2022/08/12 05:17:15;;;;;;;8.55;3.58;;;14.40;99.90;;;;;;4938928;29;20030;-89
2022/08/12 05:19:41;;;;;;;5.28;3.47;;;14.40;99.90;;;;;;4938312;29;20110;-89
2022/08/12 05:22:07;;;;;;;7.78;3.20;;;14.40;99.90;;;;;;4938432;29;20520;-88
2022/08/12 05:24:33;;;;;;;6.07;3.30;;;14.40;99.90;;;;;;4955596;29;20023;-88
2022/08/12 05:26:59;;;;;;;7.90;3.75;;;14.40;99.90;;;;;;4938440;29;20027;-89
2022/08/12 05:29:28;;;;;;;9.23;3.80;;;14.40;99.90;;;;;;4955613;29;20026;-90
2022/08/12 05:31:55;;;;;;;7.75;3.75;;;14.40;99.90;;;;;;4944585;29;20028;-90
2022/08/12 05:34:20;;;;;;;7.15;3.42;;;14.40;99.90;;;;;;4938629;29;20035;-89
2022/08/12 05:36:47;;;;;;;8.40;3.78;;;14.30;99.90;;;;;;4938276;29;20027;-88
2022/08/12 05:39:13;;;;;;;8.40;4.22;;;14.30;99.90;;;;;;4938315;29;20078;-88
2022/08/12 05:41:39;;;;;;;6.28;3.92;;;14.30;99.90;;;;;;4937812;29;20031;-89
2022/08/12 05:44:07;;;;;;;5.25;3.75;;;14.30;99.90;;;;;;4955011;29;20034;-91
2022/08/12 05:46:34;;;;;;;5.40;3.65;;;14.30;99.90;;;;;;4938251;29;20034;-90
2022/08/12 05:49:00;;;;;;;4.38;3.78;;;14.30;99.90;;;;;;4937731;29;20085;-90
2022/08/12 05:51:28;;;;;;;4.28;3.22;;;14.30;99.90;;;;;;4938452;29;20049;-90
2022/08/12 05:53:55;;;;;;;8.10;4.32;;;14.30;99.90;;;;;;4938286;29;20031;-90
2022/08/12 05:56:25;;;;;;;6.00;3.92;;;14.30;99.90;;;;;;4937879;29;20111;-90
2022/08/12 05:58:52;;;;;;;6.77;4.33;;;14.30;99.90;;;;;;4937679;29;20031;-88
2022/08/12 06:01:19;;;;;;;6.82;4.22;;;14.30;99.90;;;;;;4937443;29;20304;-91
2022/08/12 06:03:45;;;;;;;5.78;4.03;;;14.30;99.90;;;;;;4939004;29;20042;-90
2022/08/12 06:06:15;;;;;;;6.07;4.07;;;14.40;99.90;;;;;;4959647;29;20042;-90
2022/08/12 06:08:44;;;;;;;6.05;3.92;;;14.40;99.90;;;;;;4941569;29;20035;-92
2022/08/12 06:11:10;;;;;;;8.25;4.28;;;14.40;99.90;;;;;;4959509;29;20629;-89
2022/08/12 06:13:38;;;;;;;8.60;4.20;;;14.50;99.90;;;;;;4954980;29;20039;-88
2022/08/12 06:16:06;;;;;;;7.05;4.20;;;14.50;99.90;;;;;;4942448;29;20020;-89
2022/08/12 06:18:31;;;;;;;5.45;3.83;;;14.60;99.90;;;;;;4955526;29;20050;-90
2022/08/12 06:20:58;;;;;;;5.18;3.05;;;14.60;99.90;;;;;;4952927;29;20063;-89
2022/08/12 06:23:27;;;;;;;4.65;3.20;;;14.70;99.90;;;;;;4951250;29;20049;-90
2022/08/12 06:25:57;;;;;;;5.60;3.53;;;14.90;99.90;;;;;;4948703;29;20083;-89
2022/08/12 06:28:23;;;;;;;6.18;2.92;;;15.10;99.90;;;;;;4964612;29;20030;-89
2022/08/12 06:30:51;;;;;;;3.83;3.30;;;15.40;99.90;;;;;;4949506;29;20080;-89
2022/08/12 06:33:19;;;;;;;7.43;2.95;;;15.60;99.90;;;;;;4939705;29;20023;-87
2022/08/12 06:35:45;;;;;;;3.78;2.92;;;15.80;99.90;;;;;;4938758;29;20120;-87
2022/08/12 06:38:15;;;;;;;6.20;2.70;;;16.00;99.90;;;;;;4938090;29;20070;-89
2022/08/12 06:43:28;;;;;;;5.28;3.42;;;16.20;99.90;;;;;;4954514;29;20298;-89
2022/08/12 06:45:56;;;;;;;4.93;3.40;;;16.30;99.90;;;;;;4937648;29;20103;-89
2022/08/12 06:48:25;;;;;;;6.68;2.97;;;16.50;99.90;;;;;;4937000;29;20393;-89
2022/08/12 06:50:50;;;;;;;3.85;3.22;;;16.60;99.90;;;;;;4956481;29;20016;-90
2022/08/12 06:53:16;;;;;;;4.63;3.05;;;16.60;99.90;;;;;;4954550;29;20036;-90
2022/08/12 06:55:42;;;;;;;6.97;2.67;;;16.80;99.90;;;;;;4937364;29;20039;-90
2022/08/12 06:58:10;;;;;;;4.32;2.90;;;16.80;99.90;;;;;;4950576;28;20046;-88
2022/08/12 07:00:36;;;;;;;3.20;2.90;;;16.90;99.90;;;;;;4936343;29;20022;-90
2022/08/12 07:03:04;;;;;;;5.70;3.30;;;17.00;99.90;;;;;;4936091;29;20035;-89
2022/08/12 07:05:30;;;;;;;5.53;3.30;;;17.00;99.90;;;;;;4955448;29;20023;-91
2022/08/12 07:08:01;;;;;;;5.43;3.08;;;17.10;99.90;;;;;;4942826;28;20524;-90
2022/08/12 07:10:27;;;;;;;4.78;2.88;;;17.20;99.90;;;;;;4950646;29;20098;-89
2022/08/12 07:12:53;;;;;;;3.63;3.08;;;17.30;99.90;;;;;;4953274;28;20433;-88
2022/08/12 07:15:25;;;;;;;4.10;3.05;;;17.40;99.90;;;;;;4954315;29;20127;-89
2022/08/12 07:17:59;;;;;;;4.97;3.28;;;17.40;99.90;;;;;;4952069;29;20023;-89
2022/08/12 07:20:30;;;;;;;4.88;3.17;;;17.50;99.90;;;;;;4954600;28;20027;-90
2022/08/12 07:23:00;;;;;;;5.47;3.42;;;17.60;99.90;;;;;;4937489;29;20031;-92
2022/08/12 07:25:29;;;;;;;5.63;3.05;;;17.60;99.90;;;;;;4954691;28;20038;-90
2022/08/12 07:27:59;;;;;;;4.63;3.20;;;17.70;99.90;;;;;;4957999;28;20035;-90
2022/08/12 07:30:25;;;;;;;4.68;2.80;;;17.70;99.90;;;;;;4956731;28;20035;-91
2022/08/12 07:32:51;;;;;;;6.40;3.00;;;17.80;99.90;;;;;;4956317;28;20032;-93
2022/08/12 07:35:18;;;;;;;7.00;3.65;;;17.90;99.90;;;;;;4942370;28;20507;-91
2022/08/12 07:37:44;;;;;;;5.65;3.72;;;18.00;99.90;;;;;;4948158;28;20050;-91
2022/08/12 07:40:10;;;;;;;10.52;4.20;;;18.00;99.90;;;;;;4954277;28;20030;-91
2022/08/12 07:42:40;;;;;;;8.57;3.65;;;18.10;99.90;;;;;;4971103;28;20031;-90
2022/08/12 07:45:08;;;;;;;3.70;2.90;;;18.10;99.90;;;;;;4959575;28;20196;-91
2022/08/12 07:47:34;;;;;;;5.03;3.22;;;18.10;99.90;;;;;;4954248;29;20118;-92
2022/08/12 07:50:01;;;;;;;4.93;3.00;;;18.20;99.90;;;;;;4958260;28;20066;-91
2022/08/12 07:52:28;;;;;;;5.47;3.40;;;18.30;99.90;;;;;;4956717;28;20050;-91
2022/08/12 07:54:55;;;;;;;6.47;3.50;;;18.40;99.90;;;;;;4960233;28;20062;-91
2022/08/12 07:57:21;;;;;;;5.03;3.38;;;18.50;99.90;;;;;;4959718;28;20110;-91
2022/08/12 07:59:47;;;;;;;4.93;3.83;;;18.60;99.90;;;;;;4959241;28;20024;-91
2022/08/12 08:02:13;;;;;;;4.47;3.13;;;18.70;99.90;;;;;;4961518;28;20073;-92
2022/08/12 08:04:56;;;;;;;10.63;4.18;;;18.80;99.90;;;;;;4994599;28;20046;-92
2022/08/12 08:07:28;;;;;;;8.18;3.70;;;18.90;99.90;;;;;;4973550;28;20023;-92
2022/08/12 08:09:58;;;;;;;4.00;2.95;;;19.10;99.90;;;;;;4965038;28;20031;-92
2022/08/12 08:15:10;;;;;;;6.43;3.35;;;19.30;99.90;;;;;;4969427;28;20037;-95
2022/08/12 08:17:38;;;;;;;12.48;4.32;;;19.40;99.90;;;;;;4949651;28;20047;-94
2022/08/12 08:20:09;;;;;;;9.20;4.03;;;19.60;99.90;;;;;;4958645;29;20051;-91
2022/08/12 08:22:39;;;;;;;5.78;3.70;;;19.70;99.90;;;;;;4948961;28;20042;-92
2022/08/12 08:25:05;;;;;;;6.78;3.95;;;19.80;99.90;;;;;;4962682;28;20106;-92
2022/08/12 08:27:51;;;;;;;6.82;3.55;;;20.00;99.90;;;;;;4949978;29;20032;-92
2022/08/12 08:30:20;;;;;;;7.25;4.13;;;20.10;99.90;;;;;;4981813;28;20035;-91
2022/08/12 08:32:45;;;;;;;9.48;4.18;;;20.30;99.90;;;;;;4970517;28;20031;-93
2022/08/12 08:35:12;;;;;;;10.02;4.60;;;20.50;99.90;;;;;;4960791;28;20042;-92
2022/08/12 08:37:37;;;;;;;13.15;4.28;;;20.60;99.60;;;;;;4965302;28;20043;-93
2022/08/12 08:43:06;;;;;;;7.43;3.45;;;21.00;98.70;;;;;;4913012;29;20093;-91
2022/08/12 08:45:31;;;;;;;5.97;3.08;;;21.30;98.10;;;;;;4895916;29;20887;-91
2022/08/12 08:47:58;;;;;;;8.68;3.72;;;21.50;97.50;;;;;;4907064;29;20071;-93
2022/08/12 08:50:25;;;;;;;12.27;4.78;;;21.70;97.20;;;;;;4918682;29;20054;-93
2022/08/12 08:53:02;;;;;;;4.78;2.78;;;21.90;96.70;;;;;;4887843;29;20122;-90
2022/08/12 08:55:28;;;;;;;8.02;3.28;;;22.10;95.60;;;;;;4905267;29;20061;-94
2022/08/12 08:57:53;;;;;;;5.70;3.05;;;22.30;94.70;;;;;;4930056;29;20047;-92
2022/08/12 09:00:20;;;;;;;7.40;3.25;;;22.60;93.90;;;;;;4914259;29;20092;-94
2022/08/12 09:02:50;;;;;;;9.63;2.92;;;22.80;93.30;;;;;;4911654;29;20044;-94
2022/08/12 09:05:20;;;;;;;3.92;2.70;;;23.00;92.40;;;;;;4924064;29;20047;-93
2022/08/12 09:07:48;;;;;;;3.25;2.78;;;23.30;91.40;;;;;;4924580;29;20032;-92
2022/08/12 09:10:18;;;;;;;4.85;2.75;;;23.50;90.20;;;;;;4893621;29;20035;-92
2022/08/12 09:15:35;;;;;;;12.27;2.90;;;24.00;84.50;;;;;;4901615;29;20096;-93
2022/08/12 09:18:01;;;;;;;5.85;3.20;;;24.30;81.60;;;;;;4912065;28;20031;-93
2022/08/12 09:20:29;;;;;;;6.03;2.90;;;24.50;79.60;;;;;;4979450;28;20078;-93
2022/08/12 09:22:56;;;;;;;7.40;2.88;;;24.70;77.90;;;;;;4965415;28;20043;-92
2022/08/12 09:25:26;;;;;;;8.32;2.95;;;24.90;76.50;;;;;;4952371;29;20031;-94
2022/08/12 09:27:55;;;;;;;6.40;3.35;;;25.10;75.30;;;;;;4953262;29;20023;-93
2022/08/12 09:30:22;;;;;;;5.38;2.80;;;25.30;74.20;;;;;;4956965;29;20031;-93
2022/08/12 09:32:51;;;;;;;3.95;2.60;;;25.50;73.40;;;;;;4974923;28;20030;-92
2022/08/12 09:35:19;;;;;;;8.87;3.47;;;25.70;72.50;;;;;;4979823;28;20011;-93
2022/08/12 09:37:47;;;;;;;6.13;3.17;;;25.90;71.20;;;;;;4966357;29;20279;-92
2022/08/12 09:40:15;;;;;;;9.13;2.90;;;26.00;70.30;;;;;;4965766;28;20046;-86
2022/08/12 09:45:26;;;;;;;7.47;2.72;;;26.30;68.60;;;;;;4979086;28;20041;-91
2022/08/12 09:47:53;;;;;;;7.28;3.30;;;26.50;68.00;;;;;;4961078;28;20019;-93
2022/08/12 09:50:20;;;;;;;9.38;2.90;;;26.60;67.20;;;;;;4976282;28;20028;-92
2022/08/12 09:52:51;;;;;;;5.38;2.92;;;26.80;66.80;;;;;;4976480;28;20031;-94
2022/08/12 09:55:18;;;;;;;7.13;3.55;;;27.00;66.30;;;;;;4959579;28;20032;-91
2022/08/12 09:57:45;;;;;;;12.65;3.25;;;27.10;65.60;;;;;;4974151;28;20034;-93
2022/08/12 10:00:13;;;;;;;5.40;2.70;;;27.30;65.10;;;;;;4972749;28;20027;-95
2022/08/12 10:02:57;;;;;;;5.13;2.47;;;27.40;64.70;;;;;;4959988;28;20071;-93
2022/08/12 10:05:23;;;;;;;8.48;3.75;;;27.60;64.30;;;;;;4973116;28;20054;-92
2022/08/12 10:07:49;;;;;;;6.25;2.50;;;27.80;63.40;;;;;;4959775;29;20027;-93
2022/08/12 10:10:15;;;;;;;4.85;2.42;;;28.00;62.50;;;;;;4959790;29;20035;-94
2022/08/12 10:15:30;;;;;;;6.65;2.50;;;28.20;59.90;;;;;;4978726;28;20050;-89
2022/08/12 10:17:55;;;;;;;3.28;2.60;;;28.30;59.20;;;;;;4969092;28;20027;-93
2022/08/12 10:20:21;;;;;;;11.95;2.80;;;28.30;58.50;;;;;;4975552;28;20103;-94
2022/08/12 10:23:00;;;;;;;5.85;2.70;;;28.20;58.00;;;;;;4954466;28;20047;-94
2022/08/12 10:30:56;;;;;;;3.47;2.47;;;28.30;57.90;;;;;;4961207;28;20034;-94
2022/08/12 10:33:23;;;;;;;4.05;2.72;;;28.50;57.80;;;;;;4949591;29;20024;-90
2022/08/12 10:35:49;;;;;;;4.07;2.42;;;28.60;57.00;;;;;;4970043;28;20034;-90
2022/08/12 10:38:17;;;;;;;4.63;2.47;;;28.70;56.50;;;;;;4968038;28;20028;-94
2022/08/12 10:43:43;;;;;;;7.05;2.75;;;29.10;56.20;;;;;;4965992;28;20063;-94
2022/08/12 10:46:16;;;;;;;5.97;2.65;;;29.30;55.50;;;;;;4966958;29;20382;-93
2022/08/12 10:48:50;;;;;;;8.38;2.97;;;29.40;55.10;;;;;;4973820;28;20095;-94
2022/08/12 10:51:17;;;;;;;7.03;2.90;;;29.60;54.80;;;;;;4973584;28;20157;-92
2022/08/12 10:53:45;;;;;;;5.78;2.50;;;29.70;54.20;;;;;;4972059;28;20039;-93
2022/08/12 10:56:15;;;;;;;6.18;2.40;;;29.70;54.00;;;;;;4968629;28;20075;-92
2022/08/12 10:58:42;;;;;;;5.68;2.15;;;29.70;53.90;;;;;;4967999;28;20034;-96
2022/08/12 11:01:09;;;;;;;5.65;2.30;;;29.90;53.70;;;;;;4957559;29;20035;-95
2022/08/12 11:03:40;;;;;;;4.82;2.55;;;30.00;53.20;;;;;;4964612;28;20069;-91
2022/08/12 11:06:07;;;;;;;5.28;2.60;;;30.10;52.80;;;;;;4958528;29;20038;-93
2022/08/12 11:08:36;;;;;;;5.63;2.08;;;30.10;52.50;;;;;;4985491;28;20023;-94
2022/08/12 11:11:07;;;;;;;6.40;2.55;;;30.20;52.10;;;;;;4973224;29;20051;-94
2022/08/12 11:13:37;;;;;;;7.03;3.17;;;30.20;51.80;;;;;;4968699;28;20034;-95
2022/08/12 11:16:05;;;;;;;5.97;2.90;;;30.30;51.80;;;;;;4964210;28;20019;-94
2022/08/12 11:18:31;;;;;;;10.35;3.03;;;30.40;51.70;;;;;;4968051;29;20035;-95
2022/08/12 11:21:00;;;;;;;6.13;2.40;;;30.50;51.50;;;;;;4972030;28;20059;-95
2022/08/12 11:23:26;;;;;;;4.60;2.33;;;30.70;51.40;;;;;;4985715;28;20043;-94
2022/08/12 11:25:55;;;;;;;4.47;2.78;;;30.80;51.10;;;;;;4963120;28;20011;-95
2022/08/12 11:28:21;;;;;;;4.78;2.65;;;31.10;50.80;;;;;;4957955;29;20116;-94
2022/08/12 11:30:47;;;;;;;6.53;2.15;;;31.30;50.20;;;;;;4975208;28;20058;-92
2022/08/12 11:33:12;;;;;;;6.07;2.83;;;31.30;49.60;;;;;;4971064;28;20031;-96
2022/08/12 11:35:42;;;;;;;7.05;2.45;;;31.40;49.40;;;;;;4956302;29;20035;-96
2022/08/12 11:38:11;;;;;;;;;;;31.50;49.40;;;;;;4972356;28;20039;-94
2022/08/12 11:40:38;;;;;;;7.88;2.17;;;31.50;49.40;;;;;;4961847;29;19964;-94
2022/08/12 11:43:04;;;;;;;8.25;2.65;;;31.70;49.40;;;;;;4975023;29;20592;-93
2022/08/12 11:45:30;;;;;;;6.22;2.10;;;31.80;49.20;;;;;;4975536;29;20041;-93
2022/08/12 11:47:59;;;;;;;4.78;2.05;;;32.00;48.30;;;;;;4976839;28;20035;-93
2022/08/12 11:50:25;;;;;;;5.00;2.03;;;32.00;47.90;;;;;;4954284;29;20106;-94
2022/08/12 11:52:51;;;;;;;5.95;2.10;;;32.10;47.60;;;;;;4975292;29;20023;-95
2022/08/12 11:55:18;;;;;;;5.72;1.92;;;32.20;47.30;;;;;;4973423;29;20549;-93
2022/08/12 11:58:02;;;;;;;4.20;1.95;;;32.30;47.10;;;;;;4951962;29;20106;-90
2022/08/12 12:00:27;;;;;;;5.93;1.83;;;32.50;46.90;;;;;;4942872;29;20028;-92
2022/08/12 12:02:53;;;;;;;2.08;1.73;;;32.60;46.90;;;;;;4969385;29;20031;-92
2022/08/12 12:05:19;;;;;;;4.15;1.70;;;32.70;46.50;;;;;;4971104;29;20063;-94
2022/08/12 12:07:46;;;;;;;5.57;1.75;;;32.80;45.70;;;;;;4949144;29;20031;-93
2022/08/12 12:10:13;;;;;;;5.75;1.70;;;32.80;45.30;;;;;;4948867;29;20062;-94
2022/08/12 12:12:39;;;;;;;3.03;2.13;;;32.90;45.10;;;;;;4957735;29;20023;-93
2022/08/12 12:15:06;;;;;;;4.93;1.52;;;33.00;44.50;;;;;;4951507;28;20058;-94
2022/08/12 12:17:35;;;;;;;3.08;1.80;;;33.00;44.60;;;;;;4960436;29;20027;-94
2022/08/12 12:20:03;;;;;;;4.53;1.95;;;33.20;44.60;;;;;;4954549;29;20035;-93
2022/08/12 12:22:29;;;;;;;2.88;1.65;;;33.30;44.40;;;;;;4950724;29;20043;-92
2022/08/12 12:24:54;;;;;;;4.85;1.70;;;33.40;43.90;;;;;;4947775;29;20101;-92
2022/08/12 12:27:20;;;;;;;4.88;1.65;;;33.60;43.50;;;;;;4948988;29;20035;-93
2022/08/12 12:29:46;;;;;;;2.88;1.73;;;33.70;43.10;;;;;;4945165;29;20031;-94
2022/08/12 12:32:12;;;;;;;2.97;1.33;;;33.80;43.30;;;;;;4949314;29;20038;-93
2022/08/12 12:34:38;;;;;;;10.30;1.60;;;33.90;43.40;;;;;;4949923;29;20501;-93
2022/08/12 12:37:04;;;;;;;4.75;1.38;;;34.00;43.40;;;;;;4952914;29;20038;-94
2022/08/12 12:39:30;;;;;;;5.25;1.45;;;34.00;43.20;;;;;;4945474;29;20098;-93
2022/08/12 12:41:55;;;;;;;6.15;1.30;;;34.10;42.80;;;;;;4944882;29;20505;-94
2022/08/12 12:44:21;;;;;;;5.70;1.70;;;34.20;42.60;;;;;;4946592;29;20066;-93
2022/08/12 12:46:47;;;;;;;6.50;1.50;;;34.10;42.20;;;;;;4949388;29;20117;-92
2022/08/12 12:49:13;;;;;;;2.28;1.45;;;34.00;42.00;;;;;;4959100;29;20042;-93
2022/08/12 12:51:39;;;;;;;2.80;1.70;;;34.10;42.40;;;;;;4952325;29;20548;-93
2022/08/12 12:54:05;;;;;;;4.60;1.52;;;34.30;42.80;;;;;;4965439;29;20058;-94
2022/08/12 12:56:30;;;;;;;2.95;2.03;;;34.60;42.60;;;;;;4950993;29;20039;-95
2022/08/12 12:58:56;;;;;;;3.65;1.67;;;34.80;42.00;;;;;;4950565;29;20496;-94
2022/08/12 13:01:25;;;;;;;3.50;2.17;;;34.70;41.50;;;;;;4964740;29;20090;-94
2022/08/12 13:03:55;;;;;;;3.58;1.80;;;34.70;41.50;;;;;;4967368;29;20039;-94
2022/08/12 13:06:28;;;;;;;6.93;2.28;;;34.70;41.60;;;;;;4952084;29;20059;-93
2022/08/12 13:08:57;;;;;;;3.42;1.88;;;34.70;41.50;;;;;;4947254;29;20031;-93
2022/08/12 13:11:23;;;;;;;3.60;2.17;;;34.60;41.30;;;;;;4948038;29;20492;-93
2022/08/12 13:13:51;;;;;;;3.50;2.00;;;34.50;41.20;;;;;;4946770;29;20046;-93
2022/08/12 13:16:19;;;;;;;4.93;2.47;;;34.50;41.10;;;;;;4946872;29;20023;-93
2022/08/12 13:18:47;;;;;;;4.32;2.10;;;34.50;41.30;;;;;;4950511;29;20024;-92
2022/08/12 13:21:16;;;;;;;6.35;2.78;;;34.60;41.40;;;;;;4949656;29;20420;-94
2022/08/12 13:23:46;;;;;;;6.87;2.20;;;34.60;41.40;;;;;;4966948;28;20082;-93
2022/08/12 13:26:13;;;;;;;4.18;2.72;;;34.50;41.50;;;;;;4965130;29;20322;-94
2022/08/12 13:28:41;;;;;;;6.45;2.45;;;34.40;41.70;;;;;;4952637;29;20035;-92
2022/08/12 13:31:07;;;;;;;5.45;2.38;;;34.40;41.80;;;;;;4954627;29;20035;-91
2022/08/12 13:33:33;;;;;;;6.65;2.25;;;34.40;41.70;;;;;;4957281;29;20058;-93
2022/08/12 13:36:00;;;;;;;7.10;2.20;;;34.40;41.80;;;;;;4960527;29;20022;-91
2022/08/12 13:38:40;;;;;;;3.15;1.90;;;34.30;41.30;;;;;;4962003;28;20019;-92
2022/08/12 13:41:08;;;;;;;6.28;2.08;;;34.40;41.00;;;;;;4955107;29;20039;-94
2022/08/12 13:43:34;;;;;;;7.53;2.65;;;34.60;41.00;;;;;;4951458;29;20036;-96
2022/08/12 13:46:01;;;;;;;3.40;1.92;;;34.70;41.00;;;;;;4950205;29;20023;-95
2022/08/12 13:48:28;;;;;;;3.67;2.00;;;34.90;41.10;;;;;;4952571;29;20042;-93
2022/08/12 13:50:56;;;;;;;8.27;1.80;;;35.20;41.10;;;;;;4946634;29;20027;-94
2022/08/12 13:53:22;;;;;;;4.20;1.85;;;35.30;40.80;;;;;;4964603;29;20124;-94
2022/08/12 13:55:50;;;;;;;2.15;1.60;;;35.40;40.60;;;;;;4948010;29;20051;-93
2022/08/12 13:58:20;;;;;;;4.55;1.83;;;35.60;40.50;;;;;;4945781;29;20466;-92
2022/08/12 14:00:51;;;;;;;5.90;2.28;;;35.70;40.20;;;;;;4946794;29;20015;-94
2022/08/12 14:03:22;;;;;;;4.82;1.77;;;35.80;40.40;;;;;;4947934;29;20415;-91
2022/08/12 14:05:48;;;;;;;3.42;1.80;;;35.80;40.10;;;;;;4963155;29;20023;-94
2022/08/12 14:08:15;;;;;;;11.20;1.83;;;35.90;40.10;;;;;;4945906;29;20027;-93
2022/08/12 14:10:42;;;;;;;4.20;1.80;;;36.00;39.90;;;;;;4946387;29;20031;-94
2022/08/12 14:13:14;;;;;;;4.28;1.70;;;36.00;39.90;;;;;;4952979;29;20038;-94
2022/08/12 14:15:46;;;;;;;1.83;1.33;;;36.20;39.80;;;;;;4954364;29;20057;-93
2022/08/12 14:18:14;;;;;;;2.47;1.38;;;36.10;39.50;;;;;;4955411;29;20055;-93
2022/08/12 14:20:42;;;;;;;2.60;1.50;;;36.10;39.20;;;;;;4951284;29;20143;-93
2022/08/12 14:23:08;;;;;;;4.15;1.90;;;36.10;39.00;;;;;;4949205;29;20043;-94
2022/08/12 14:25:34;;;;;;;2.03;1.60;;;36.20;39.10;;;;;;4951891;29;20035;-94
2022/08/12 14:28:10;;;;;;;4.10;1.55;;;36.50;39.00;;;;;;4946755;29;20035;-95
2022/08/12 14:30:36;;;;;;;4.07;1.90;;;36.70;38.80;;;;;;4951093;29;20127;-94
2022/08/12 14:33:03;;;;;;;3.05;1.73;;;36.90;39.00;;;;;;4948636;29;20031;-93
2022/08/12 14:35:29;;;;;;;3.65;1.52;;;37.10;38.80;;;;;;4950201;29;20038;-94
2022/08/12 14:37:55;;;;;;;4.10;2.03;;;37.30;38.60;;;;;;4950853;29;20027;-93
2022/08/12 14:40:21;;;;;;;3.08;2.00;;;37.20;38.40;;;;;;4952642;29;20038;-94